Time;durP1;ratioP1;P1;durP2;ratioP2;P2;SDS_P1;SDS_P2;PMS_P1;PMS_P2;Temp;Humidity;BMP_temperature;BMP_pressure;BME280_temperature;BME280_humidity;BME280_pressure;Samples;Min_cycle;Max_cycle;Signal;HPM_P1;HPM_P2
2023/05/16 05:09:16;;;;;;;12.30;3.78;;;7.80;99.90;;;;;;6258629;22;1548573;-72
2023/05/16 05:11:41;;;;;;;7.63;2.78;;;7.80;99.90;;;;;;6277451;22;20077;-77
2023/05/16 05:14:07;;;;;;;10.55;3.10;;;7.90;99.90;;;;;;6275534;22;20437;-77
2023/05/16 05:16:33;;;;;;;8.27;2.30;;;7.90;99.90;;;;;;6277422;22;20310;-76
2023/05/16 05:18:59;;;;;;;12.90;3.17;;;8.00;99.90;;;;;;6277607;22;20023;-77
2023/05/16 05:21:25;;;;;;;12.50;3.92;;;8.10;99.90;;;;;;6275572;22;20016;-81
2023/05/16 05:23:51;;;;;;;11.30;3.13;;;8.10;99.90;;;;;;6277325;22;20065;-78
2023/05/16 05:26:17;;;;;;;11.50;2.90;;;8.20;99.90;;;;;;6275524;22;20016;-79
2023/05/16 05:28:43;;;;;;;8.75;3.10;;;8.20;99.90;;;;;;6277496;22;20253;-85
2023/05/16 05:31:08;;;;;;;17.50;3.08;;;8.30;99.90;;;;;;6275722;22;20012;-84
2023/05/16 05:33:34;;;;;;;12.93;3.20;;;8.50;99.90;;;;;;6277474;22;20065;-82
2023/05/16 05:36:00;;;;;;;11.95;3.03;;;8.50;99.90;;;;;;6277093;22;20012;-81
2023/05/16 05:38:25;;;;;;;12.38;3.33;;;8.60;99.90;;;;;;6276853;22;20023;-81
2023/05/16 05:40:51;;;;;;;13.52;2.80;;;8.70;99.90;;;;;;6275199;22;20023;-79
2023/05/16 05:43:17;;;;;;;10.20;2.60;;;8.70;99.90;;;;;;6249846;22;20516;-83
2023/05/16 05:45:43;;;;;;;12.38;2.70;;;8.80;99.90;;;;;;6275465;22;20027;-85
2023/05/16 05:48:09;;;;;;;12.23;2.30;;;8.90;99.90;;;;;;6249695;22;20004;-81
2023/05/16 05:50:36;;;;;;;7.38;2.40;;;9.00;99.90;;;;;;6277180;22;20065;-78
2023/05/16 05:53:02;;;;;;;10.55;2.38;;;9.10;99.90;;;;;;6275470;22;20014;-75
2023/05/16 05:55:27;;;;;;;9.77;2.08;;;9.30;99.90;;;;;;6277013;22;20054;-75
2023/05/16 05:57:53;;;;;;;9.85;2.50;;;9.40;99.90;;;;;;6276997;22;20016;-74
2023/05/16 06:00:19;;;;;;;7.55;2.05;;;9.40;99.90;;;;;;6275106;22;20038;-74
2023/05/16 06:02:46;;;;;;;7.43;2.03;;;9.50;99.90;;;;;;6277083;22;20004;-79
2023/05/16 06:05:11;;;;;;;13.55;2.88;;;9.60;99.90;;;;;;6249550;22;20014;-79
2023/05/16 06:07:37;;;;;;;8.85;2.70;;;9.60;99.90;;;;;;6276961;22;20044;-84
2023/05/16 06:10:04;;;;;;;8.05;2.42;;;9.70;99.90;;;;;;6276476;22;20019;-83
2023/05/16 06:12:30;;;;;;;14.00;2.63;;;9.70;99.90;;;;;;6278183;22;20042;-81
2023/05/16 06:14:56;;;;;;;10.55;2.13;;;9.80;99.90;;;;;;6251626;22;20440;-80
2023/05/16 06:17:21;;;;;;;10.13;2.17;;;9.80;99.90;;;;;;6278643;22;20128;-80
2023/05/16 06:19:47;;;;;;;12.70;2.97;;;9.90;99.90;;;;;;6277020;22;20096;-79
2023/05/16 06:22:13;;;;;;;7.70;2.17;;;9.80;99.90;;;;;;6277087;22;20015;-81
2023/05/16 06:24:39;;;;;;;11.48;2.65;;;9.90;99.90;;;;;;6278900;22;20012;-79
2023/05/16 06:27:05;;;;;;;8.35;2.38;;;10.00;99.90;;;;;;6276879;22;20349;-82
2023/05/16 06:29:31;;;;;;;10.35;2.13;;;10.00;99.90;;;;;;6277164;22;20023;-75
2023/05/16 06:31:57;;;;;;;7.80;2.05;;;10.00;99.90;;;;;;6277240;22;20011;-79
2023/05/16 06:34:26;;;;;;;10.73;3.13;;;10.20;99.90;;;;;;6277036;22;20094;-80
2023/05/16 06:36:53;;;;;;;9.77;2.45;;;10.10;99.90;;;;;;6278897;22;20007;-77
2023/05/16 06:39:18;;;;;;;10.38;2.42;;;10.10;99.90;;;;;;6278475;22;20014;-79
2023/05/16 06:41:44;;;;;;;7.55;1.80;;;10.10;99.90;;;;;;6278724;22;20007;-78
2023/05/16 06:44:10;;;;;;;9.57;2.45;;;10.20;99.90;;;;;;6277818;22;20035;-78
2023/05/16 06:46:37;;;;;;;12.43;3.30;;;10.20;99.90;;;;;;6251294;22;20437;-79
2023/05/16 06:49:03;;;;;;;9.00;1.90;;;10.20;99.90;;;;;;6276771;22;20012;-78
2023/05/16 06:51:29;;;;;;;10.77;2.38;;;10.40;99.90;;;;;;6278704;22;20019;-78
2023/05/16 06:53:56;;;;;;;9.70;2.22;;;10.40;99.90;;;;;;6277830;22;20015;-78
2023/05/16 06:56:22;;;;;;;6.90;1.77;;;10.40;99.90;;;;;;6278286;22;20012;-80
2023/05/16 06:58:48;;;;;;;7.10;2.25;;;10.30;99.90;;;;;;6251218;22;20091;-79
2023/05/16 07:01:14;;;;;;;6.90;1.95;;;10.30;99.90;;;;;;6278539;22;20060;-79
2023/05/16 07:03:40;;;;;;;9.32;2.75;;;10.40;99.90;;;;;;6276703;22;20012;-80
2023/05/16 07:06:06;;;;;;;8.45;2.13;;;10.50;99.90;;;;;;6250930;22;20114;-79
2023/05/16 07:08:32;;;;;;;6.70;2.67;;;10.60;99.90;;;;;;6276556;22;20449;-79
2023/05/16 07:10:57;;;;;;;9.52;1.73;;;10.70;99.90;;;;;;6278007;22;20023;-79
2023/05/16 07:13:23;;;;;;;7.10;1.98;;;10.90;99.90;;;;;;6225601;22;20008;-80
2023/05/16 07:15:49;;;;;;;10.65;3.05;;;11.00;99.90;;;;;;6225584;22;20433;-79
2023/05/16 07:18:15;;;;;;;9.98;1.55;;;;;;;;;;6251327;22;20016;-80
2023/05/16 07:20:41;;;;;;;9.18;2.17;;;;;;;;;;6250746;22;20021;-80
